空港情報

日本の空港の気象及び、管制情報です。
気象情報はより詳細な情報が取得できる「AVIATION WEATER CENTER」 から取得しているため、VATSIMの気象情報と若干のタイムラグが生じることがあります。

VRCのフィールド設定用空港一覧はこちらをご覧ください。

RJCG Sapporo Control

RJCW / Wakkanai
VMC

NO RADAR

RADIO

08/26 2200x45

民間 civil

9000

050@10KT

30.38

RJCW 250600Z 05010KT 9000 -SHSN FEW010 BKN020 M06/M10 Q1029

RJER / Rishiri

NO RADAR

REMOTE

25/07 1800x45

民間 civil

過去5時間に発表されたMETARがありません。

RJEB / Monbetsu
VMC

NO RADAR

REMOTE

32/14 2000x45

民間 civil

8000

040@5KT

30.38

RJEB 250600Z 04005KT 010V080 8000 -SHSN FEW010 SCT015 BKN020 M06/M10 Q1029

RJCM / Memanbetsu
IMC

NO RADAR

TOWER

36/18 2500x45

民間 civil

3200

350@9KT

30.35

RJCM 250600Z 35009KT 3200 -SHSN FEW010 BKN015 BKN020 M06/M08 Q1028

RJEC / Asahikawa
VMC

NO RADAR

TOWER

34/16 2500x60

民間 civil

9999

250@3KT

30.27

RJEC 250600Z 25003KT 230V310 9999 FEW010 BKN035 M03/M16 Q1025

RJCN / Nakashibetsu
VMC

NO RADAR

RADIO

08/26 2000x45

民間 civil

9999

360@16KT

30.27

RJCN 250600Z 36016KT 9999 -SHSN FEW010 SCT060 M03/M09 Q1025

RJCK / Kushiro
VMC

NO RADAR

TOWER

17/35 2500x45

民間 civil

9999

030@9KT

30.27

RJCK 250600Z 03009KT 360V070 9999 FEW030 BKN040 M02/M07 Q1025

RJCO / Sapporo
VMC

RJCO_APP

TOWER

14/32 1500x30

共用 dual

9999

330@13KT

30.32

RJCO 250600Z 33013KT 9999 FEW010 BKN035 02/M03 Q1027

RJCJ / Chitose

RJCC_APP

TOWER

36R/18L 3000x60
36L/18R 2700x45

自衛隊 military

過去5時間に発表されたMETARがありません。

RJCC / NewChitose
VMC

RJCC_APP

TOWER

01L/19R 3000x60
01R/19L 3000x60

民間 civil

9999

360@9KT

30.30

RJCC 250630Z 36009KT 9999 FEW030 01/M03 Q1026

RJCB / Obihiro
VMC

NO RADAR

TOWER

35/17 2500x45

民間 civil

9999

060@4KT

30.24

RJCB 250600Z 06004KT 020V090 9999 FEW040 M01/M07 Q1024

RJEO / Okushiri

NO RADAR

REMOTE

12/30 1500x45

民間 civil

過去5時間に発表されたMETARがありません。

RJCH / Hakodate
VMC

RJCH_APP

TOWER

12/30 3000x45

民間 civil

9999

290@9KT

30.27

RJCH 250600Z 29009KT 9999 FEW030 05/M02 Q1025

RJSA / Aomori
VMC

NO RADAR

TOWER

24/06 3000x60

民間 civil

9999

260@8KT

30.27

RJSA 250600Z 26008KT 9999 FEW015 BKN020 03/M01 Q1025

RJSO / Ominato

RJSM_APP

TOWER

04/22 600x45

自衛隊 military

過去5時間に発表されたMETARがありません。

RJSM / Misawa
VMC

RJSM_APP

TOWER

10/28 3050x45

共用 dual

9999

300@10KT

30.27

RJSM 250600Z 30010KT 9999 FEW035 04/M02 Q1025

RJSH / Hachinohe

RJSM_APP

TOWER

25/07 2250x45

自衛隊 military

過去5時間に発表されたMETARがありません。

RJSK / Akita
VMC

NO RADAR

TOWER

10/28 2500x60

民間 civil

9999

320@5KT

30.32

RJSK 250600Z 32005KT 9999 FEW025 BKN030 05/M00 Q1027

RJSI / Hanamaki
VMC

NO RADAR

RADIO

20/02 2500x45

民間 civil

9999

310@8KT

30.27

RJSI 250600Z 31008KT 9999 FEW030 07/M03 Q1025

RJSR / Odate-Noshiro
VMC

NO RADAR

REMOTE

11/29 2000x45

民間 civil

9999

250@5KT

30.30

RJSR 250600Z 25005KT 210V300 9999 FEW020 BKN025 05/M00 Q1026

RJTG Tokyo Control

RJSY / Shonai
VMC

NO RADAR

RADIO

09/27 2000x45

民間 civil

9999

340@3KT

30.32

RJSY 250600Z 34003KT 290V040 9999 FEW020 SCT035 07/02 Q1027

RJSC / Yamagata
VMC

NO RADAR

RADIO

01/19 2000x45

民間 civil

9999

360@4KT

30.30

RJSC 250600Z 36004KT 9999 FEW010 04/M00 Q1026

RJST / Matsushima

RJSS_APP

TOWER

07/25 2071x46
15/33 1500x46

自衛隊 military

過去5時間に発表されたMETARがありません。

RJSS / Sendai
VMC

RJSS_APP

TOWER

27/09 3000x45
12/30 1200x45

民間 civil

9999

130@7KT

30.24

RJSS 250600Z 13007KT 9999 FEW030 09/M00 Q1024

RJSD / Sado

NO RADAR

REMOTE

10/28 890x25

民間 civil

過去5時間に発表されたMETARがありません。

RJSN / Niigata
VMC

RJSN_APP

TOWER

10/28 2500x45
04/22 1314x45

民間 civil

9999

030@5KT

30.32

RJSN 250600Z 03005KT 9999 FEW030 08/02 Q1027

RJSF / Fukushima
VMC

NO RADAR

RADIO

01/19 2500x60

民間 civil

9999

350@6KT

30.24

RJSF 250600Z 35006KT 310V020 CAVOK 09/M03 Q1024

RJAH / Ibaraki/Hyakuri
VMC

RJAH_APP

TOWER

03L/21R 2700x45
03R/21L 2700x45

共用 dual

9999

080@6KT

30.24

RJAH 250600Z 08006KT 040V100 9999 FEW030 12/01 Q1024

RJTT / Tokyo
VMC

RJTT_APP

TOWER

34LR/16RL 3000x60
04/22&05/23 2500x60

民間 civil

9999

070@7KT

30.24

RJTT 250630Z 07007KT 9999 FEW030 BKN/// 12/02 Q1024 NOSIG

RJAA / Narita
VMC

RJTT_APP

TOWER

34L/16R 4000x60
34R/16L 2500x60

民間 civil

9999

040@9KT

30.24

RJAA 250630Z 04009KT 360V070 9999 FEW030 SCT/// 11/01 Q1024 NOSIG

RJTL / Shimofusa

RJTT_APP

TOWER

19/01 2250x45

自衛隊 military

過去5時間に発表されたMETARがありません。

RJTE / Tateyama

RJTT_APP

TOWER

09/27 300x45

自衛隊 military

過去5時間に発表されたMETARがありません。

RJTO / Oshima
VMC

NO RADAR

RADIO

03/21 1800x45

民間 civil

9999

040@14KT

30.21

RJTO 250600Z 04014KT 9999 FEW035 SCT/// 13/04 Q1023

RJTK / Kisarazu

NO RADAR

TOWER

02/20 1830x45

自衛隊 military

過去5時間に発表されたMETARがありません。

RJAN / Niijima

NO RADAR

REMOTE

11/29 800x25

自衛隊 military

過去5時間に発表されたMETARがありません。

RJAZ / Kozushima

NO RADAR

REMOTE

11/29 800x25

民間 civil

過去5時間に発表されたMETARがありません。

RJTH / Hachijojima

NO RADAR

RADIO

26/08 2000x45

民間 civil

過去5時間に発表されたMETARがありません。

RJTF / Chofu
VMC

NO RADAR

Flight Service

35/17 800x30

民間 civil

9999

360@8KT

30.24

RJTF 250600Z 36008KT 9999 FEW030 BKN/// 13/M03 Q1024

RJTQ / Miyake

NO RADAR

REMOTE

02/20 1200x30

民間 civil

過去5時間に発表されたMETARがありません。

RJTC / Tachikawa

NO RADAR

TOWER

01/19 900x45

自衛隊 military

過去5時間に発表されたMETARがありません。

RJTA / Atsugi

NO RADAR

TOWER

01/19 2438x45

自衛隊 military

過去5時間に発表されたMETARがありません。

RJTU / Utsunomiya

RJTY_APP

TOWER

01/19 1700x45

自衛隊 military

過去5時間に発表されたMETARがありません。

RJTJ / Iruma

RJTY_APP

TOWER

17/35 2000x45

自衛隊 military

過去5時間に発表されたMETARがありません。

RJTY / Yokota
VMC

RJTY_APP

TOWER

18/36 3353x60

自衛隊 military

9999

020@11KT

30.29

RJTY 250556Z AUTO 02011KT 10SM CLR 13/M05 A3029 RMK AO2 SLP264 T01331053 10137 20068 56005 FZRANO $

RJAF / Matsumoto
VMC

NO RADAR

RADIO

18/36 2000x45

民間 civil

9999

000@2KT

30.24

RJAF 250600Z VRB02KT 9999 FEW020 BKN/// 07/M00 Q1024

RJNS / Shizuoka
VMC

NO RADAR

RADIO

30/12 2500x60

民間 civil

9999

080@4KT

30.18

RJNS 250600Z 08004KT 030V110 9999 FEW025 14/05 Q1022

RJNY / Yaizu-Shizuhama

NO RADAR

TOWER

27/09 1500x45

自衛隊 military

過去5時間に発表されたMETARがありません。

RJNH / Hamamatsu

RJNH_APP

TOWER

09/27 2550x60

自衛隊 military

過去5時間に発表されたMETARがありません。

RJGG / Chubu
VMC

RJGG_APP

TOWER

36/18 3500x60

民間 civil

9999

230@7KT

30.21

RJGG 250630Z 23007KT 9999 FEW030 12/05 Q1023 NOSIG

RJNA / Nagoya

RJGG_APP

TOWER

34/16 2740x45

民間 civil

過去5時間に発表されたMETARがありません。

RJNG / Gifu

RJGG_APP

TOWER

28/10 2710x46

自衛隊 military

過去5時間に発表されたMETARがありません。

RJOE / Akeno

RJOE_APP

TOWER

13/31 500x30
04/22 500x30

自衛隊 military

過去5時間に発表されたMETARがありません。

RJNK / Komatsu
VMC

RJNK_APP

TOWER

06/24 2700x45

共用 dual

9999

040@19KT

30.24

RJNK 250600Z 04019KT 9999 FEW020 BKN230 11/02 Q1024

RJNW / Noto
VMC

NO RADAR

RADIO

25/07 2000x45

民間 civil

9999

060@7KT

30.30

RJNW 250600Z 06007KT 9999 FEW025 06/01 Q1026

RJNT / Toyama
VMC

NO RADAR

TOWER

20/02 2000x45

民間 civil

9999

210@2KT

30.30

RJNT 250600Z 21002KT 9999 FEW025 SCT040 BKN/// 08/04 Q1026

RJNF / Fukui

NO RADAR

REMOTE

18/36 1200x30

民間 civil

過去5時間に発表されたMETARがありません。

RJBD / Nanki-Shirahama
VMC

NO RADAR

RADIO

15/33 2000x45

民間 civil

9999

230@5KT

30.21

RJBD 250600Z 23005KT 130V300 9999 FEW035 BKN045 14/07 Q1023

RJOY / Yao
VMC

RJBB_APP

TOWER

27/09 1490x45
13/31 1200x30

民間 civil

9999

000@2KT

30.24

RJOY 250600Z VRB02KT 9999 FEW035 SCT/// 14/04 Q1024

RJOO / Osaka
VMC

RJBB_APP

TOWER

32L/14R 3000x60
32R/14L 1830x45

民間 civil

9999

330@6KT

30.24

RJOO 250600Z 33006KT 270V020 9999 FEW035 BKN/// 15/03 Q1024 RMK 1CU035 A3024

RJOB / Okayama
VMC

RJBB_APP

TOWER

07/25 3000x45

民間 civil

9999

060@3KT

30.24

RJOB 250600Z 06003KT 020V110 9999 FEW030 BKN/// 12/02 Q1024

RJBB / Kansai
VMC

RJBB_APP

TOWER

06R/24L 3500x60
06L/24R 4000x60

民間 civil

9999

300@8KT

30.24

RJBB 250630Z 30008KT 9999 FEW025 BKN/// 11/07 Q1024 NOSIG

RJBE / Kobe
VMC

RJBB_APP

TOWER

09/27 2500x60

民間 civil

9999

240@7KT

30.24

RJBE 250600Z 24007KT 9999 FEW035 BKN/// 12/05 Q1024

RJBT / Tajima
VMC

NO RADAR

REMOTE

01/19 1200x30

民間 civil

9999

360@9KT

30.27

RJBT 250600Z 36009KT 9999 FEW020 SCT030 BKN/// 09/04 Q1025

RJOR / Tottori
VMC

NO RADAR

RADIO

10/28 2000x45

民間 civil

9999

050@17KT

30.27

RJOR 250600Z 05017KT 9999 FEW030 BKN/// 11/04 Q1025

RJNO / Oki

NO RADAR

REMOTE

07/25 2000x45

民間 civil

過去5時間に発表されたMETARがありません。

RJOH / Miho
VMC

RJOH_APP

TOWER

25/07 2500x45

共用 dual

9999

060@14KT

30.27

RJOH 250600Z 06014KT 9999 FEW050 BKN200 11/04 Q1025

RJOC / Izumo
VMC

RJOH_APP

RADIO

07/25 2000x45

共用 dual

9999

070@15KT

30.27

RJOC 250600Z 07015KT 9999 FEW030 BKN/// 10/04 Q1025

RJDG Fukuoka Control

RJOT / Takamatsu
VMC

RJBB_APP

TOWER

26/08 2500x60

民間 civil

9999

060@12KT

30.24

RJOT 250600Z 06012KT 9999 FEW030 SCT/// 11/03 Q1024

RJOK / Kochi
VMC

RJBB_APP

TOWER

32/14 2500x45

民間 civil

9999

190@8KT

30.18

RJOK 250600Z 19008KT 9999 FEW035 15/06 Q1022

RJOS / Tokushima
VMC

RJOS_APP

TOWER

29/11 2500x45

共用 dual

9999

360@8KT

30.24

RJOS 250600Z 36008KT 330V030 9999 FEW030 SCT/// 12/03 Q1024

RJOA / Hiroshima
VMC

RJOA_APP

TOWER

10/28 3000x60

民間 civil

9999

110@4KT

30.24

RJOA 250600Z 11004KT CAVOK 11/02 Q1024

RJBH / Hiroshimanishi

NO RADAR

Flight Service

04/22 1800x45

民間 civil

過去5時間に発表されたMETARがありません。

RJOI / Iwakuni

RJOI_APP

TOWER

02/20 2440x60

共用 dual

過去5時間に発表されたMETARがありません。

RJOM / Matsuyama
VMC

RJOI_APP

TOWER

14/32 2500x45

民間 civil

9999

350@12KT

30.21

RJOM 250600Z 35012KT 9999 FEW030 13/05 Q1023

RJOZ / Ozuki

RJFZ_APP

TOWER

35/17 1201x61
12/30 899x46

自衛隊 military

過去5時間に発表されたMETARがありません。

RJOF / Hofu

RJFZ_APP

TOWER

30/12 1180x60
01/19 1480x45

自衛隊 military

過去5時間に発表されたMETARがありません。

RJDC / Yamaguchi-Ube
VMC

RJFZ_APP

RADIO

07/25 2500x45

民間 civil

9999

180@5KT

30.21

RJDC 250600Z 18005KT CAVOK 10/04 Q1023

RJFR / Kitakyushu
VMC

RJFZ_APP

TOWER

18/36 2500x60

民間 civil

9999

130@5KT

30.21

RJFR 250600Z 13005KT CAVOK 11/03 Q1023

RJFZ / Tsuiki

RJFZ_APP

TOWER

25/07 2399x46

自衛隊 military

過去5時間に発表されたMETARがありません。

RJOW / Iwami
VMC

NO RADAR

REMOTE

11/29 2000x45

民間 civil

9999

010@5KT

30.24

RJOW 250600Z 01005KT 300V060 CAVOK 12/05 Q1024

RJDT / Tsushima
VMC

NO RADAR

REMOTE

32/14 1900x45

民間 civil

9999

070@12KT

30.21

RJDT 250600Z 07012KT 030V110 9999 BKN025 12/06 Q1023

RJFF / Fukuoka
VMC

RJFF_APP

TOWER

16/34 2800x60

民間 civil

9999

070@8KT

30.18

RJFF 250630Z 07008KT 030V100 9999 FEW025 14/03 Q1022 BECMG 05009KT

RJFS / Saga
VMC

RJFF_APP

RADIO

29/11 2000x45

民間 civil

9999

030@13KT

30.12

RJFS 250600Z 03013KT 9999 FEW030 15/05 Q1020

RJFA / Ashiya

RJFF_APP

TOWER

12/30 1640x46

自衛隊 military

過去5時間に発表されたMETARがありません。

RJDB / Iki

RJFF_APP

REMOTE

20/02 1200x30

民間 civil

過去5時間に発表されたMETARがありません。

RJFO / Oita
VMC

RJFO_APP

TOWER

01/19 3000x45

民間 civil

9999

010@5KT

30.21

RJFO 250600Z 01005KT 330V040 9999 FEW030 12/03 Q1023

RJFU / Nagasaki
VMC

RJFU_APP

TOWER

32/14 3000x60

民間 civil

9999

260@4KT

30.12

RJFU 250600Z 26004KT 9999 FEW030 15/M01 Q1020

RJDU / Omura

RJFU_APP

TOWER

18/36 1200x30

自衛隊 military

過去5時間に発表されたMETARがありません。

RJFE / Fukue
VMC

NO RADAR

RADIO

03/21 2000x45

民間 civil

9999

050@10KT

30.12

RJFE 250600Z 05010KT 010V090 9999 FEW040 14/05 Q1020

RJDO / Ojika

NO RADAR

REMOTE

03/21 800x30

民間 civil

過去5時間に発表されたMETARがありません。

RJDK / Kamigoto

NO RADAR

REMOTE

17/35 800x30

民間 civil

過去5時間に発表されたMETARがありません。

RJDA / Amakusa

NO RADAR

Flight Service

31/13 1000x30

民間 civil

過去5時間に発表されたMETARがありません。

RJFT / Kumamoto
VMC

RJFT_APP

TOWER

07/25 3000x45

民間 civil

9999

200@7KT

30.12

RJFT 250600Z 20007KT 9999 FEW040 14/05 Q1020

RJFN / Nyutabaru

RJFM_APP

TOWER

28/10 2701x46

自衛隊 military

過去5時間に発表されたMETARがありません。

RJFM / Miyazaki
VMC

RJFM_APP

TOWER

27/09 2500x45

民間 civil

9999

030@11KT

30.18

RJFM 250600Z 03011KT 9999 FEW030 14/07 Q1022

RJFK / Kagoshima
VMC

RJFK_APP

TOWER

34/16 3000x45

民間 civil

9999

100@6KT

30.12

RJFK 250600Z 10006KT 060V130 9999 FEW030 BKN050 15/07 Q1020 RMK 1CU030 7SC050 A3014 VOLCANIC ASH CLOUD S

RJFY / Kanoya

RJFY_APP

TOWER

26L/08R 2250x45
26R/08L 1200x40

自衛隊 military

過去5時間に発表されたMETARがありません。

RJFG / Tanegashima
VMC

NO RADAR

RADIO

31/13 2000x45

民間 civil

9999

070@9KT

30.09

RJFG 250600Z 07009KT 020V120 9999 FEW008 SCT015 BKN020 14/12 Q1019

RJFC / Yakushima

NO RADAR

REMOTE

14/32 1500x45

民間 civil

過去5時間に発表されたMETARがありません。

RJBG Kobe Control

ROAH / Naha
VMC

ROAH_APP

TOWER

36/18 3000x45

共用 dual

9999

070@6KT

29.97

ROAH 250630Z 07006KT 030V110 9999 FEW030 BKN070 22/15 Q1015

RORA / Aguni

ROAH_APP

REMOTE

01/19 800x25

民間 civil

過去5時間に発表されたMETARがありません。

ROKJ / Kumejima

ROAH_APP

REMOTE

03/21 2000x45

民間 civil

過去5時間に発表されたMETARがありません。

RODN / Kadena
VMC

ROAH_APP

TOWER

05L/23R 3688x91
05R/23L 3688x61

自衛隊 military

9999

080@6KT

30.00

RODN 250556Z AUTO 08006KT 10SM FEW031 BKN070 21/16 A3000 RMK AO2 RAE0459 SLP166 P0000 60001 T02140159 10231 20175 57024 $

ROTM / Futenma

ROAH_APP

TOWER

06/24 2740x45

自衛隊 military

過去5時間に発表されたMETARがありません。

RORS / Shimojishima
VMC

RORS_APP

TOWER

17/35 3000x60

民間 civil

9999

010@9KT

30.00

RORS 250600Z 01009KT 9999 FEW031 SCT040 22/15 Q1016

ROMY / Miyako
VMC

RORS_APP

TOWER

04/22 2000x45

民間 civil

9999

040@7KT

29.97

ROMY 250600Z 04007KT 350V080 9999 FEW035 SCT050 21/12 Q1015

ROIG / New Ishigaki
VMC

RORS_APP

TOWER

22/04 2000x45

民間 civil

9999

040@9KT

30.00

ROIG 250600Z 04009KT 360V070 9999 FEW036 21/14 Q1016

RORT / Tarama

RORS_APP

REMOTE

36/18 1500x45

民間 civil

過去5時間に発表されたMETARがありません。

RJKA / Amami
VMC

NO RADAR

RADIO

03/21 2000x45

民間 civil

9999

080@13KT

30.00

RJKA 250600Z 08013KT 9999 FEW015 SCT060 BKN070 20/17 Q1016

RJKI / Kikai
VMC

NO RADAR

REMOTE

07/25 1200x30

民間 civil

9000

030@5KT

30.03

RJKI 250600Z AUTO 03005KT 9000 -RA FEW003 SCT005 BKN030 17/16 Q1017

RJKN / Tokunoshima

NO RADAR

REMOTE

19/01 2000x45

民間 civil

過去5時間に発表されたMETARがありません。

RJKB / Okierabu

NO RADAR

REMOTE

04/22 1350x45

民間 civil

過去5時間に発表されたMETARがありません。

RORY / Yoron
VMC

NO RADAR

REMOTE

32/14 1320x30

民間 civil

9999

040@7KT

30.00

RORY 250600Z AUTO 04007KT 9999 // FEW028 BKN070 21/15 Q1016

RORK / Kitadaito
VMC

NO RADAR

REMOTE

03/21 1500x45

民間 civil

9999

070@7KT

29.97

RORK 250600Z AUTO 07007KT 9999 NCD 23/14 Q1015

ROMD / Minami-daito
VMC

NO RADAR

REMOTE

02/20 1500x45

民間 civil

9999

050@7KT

29.97

ROMD 250600Z AUTO 05007KT 020V080 9999 NCD 22/15 Q1015

ROYN / Yonaguni
VMC

NO RADAR

REMOTE

26/08 2000x45

民間 civil

9999

360@9KT

30.00

ROYN 250600Z AUTO 36009KT 9999 NCD 21/13 Q1016

RORH / Hateruma

NO RADAR

REMOTE

02/20 800x25

民間 civil

過去5時間に発表されたMETARがありません。

ROKR / Kerama

NO RADAR

REMOTE

02/20 800x25

民間 civil

過去5時間に発表されたMETARがありません。